Ansac Wyoming — 9V2947 — position and weather

sailwx.info

Track history (hours):
 
Tides and Currents Weather Stations Pressure Air Temp Water Temp Dewpoint Dewpoint Depression Visibility Wind Speed Wind Dir Waves Ship Positions

Ansac Wyoming

Last reported at 2017-Oct-15 20:46 UTC. Time now 2017-Oct-22 06:43 UTC.
Position N 35°25' W 010°11'.

Length 179 m; draft 6.2 m.

Type: Cargo ship. MMSI: 566264000.

Date/timePositionNaut miles runAvg speedWind from/ knotsBaromVisibWave heightAir tempDewpointWater temp
2017-Oct-15 20:46N 35°25' W 010°11'312.1
2017-Oct-15 20:30N 35°25' W 010°07'611.8
2017-Oct-15 20:00N 35°26' W 009°60'611.9
2017-Oct-15 19:30N 35°27' W 009°53'612.3
2017-Oct-15 19:00N 35°29' W 009°45'612.6
2017-Oct-15 18:30N 35°30' W 009°37'612.7
2017-Oct-15 18:00N 35°30' W 009°30'612.7
2017-Oct-15 17:30N 35°32' W 009°22'713.1
2017-Oct-15 16:59N 35°33' W 009°14'613.1
2017-Oct-15 16:30N 35°34' W 009°06'713.1
2017-Oct-15 16:00N 35°35' W 008°58'713.2
2017-Oct-15 15:30N 35°36' W 008°50'713.8
2017-Oct-15 15:00N 35°37' W 008°42'1414.4
2017-Oct-15 14:00N 35°39' W 008°24'612.8
2017-Oct-15 13:30N 35°41' W 008°17'612.9
2017-Oct-15 13:00N 35°42' W 008°09'713.3
2017-Oct-15 12:30N 35°43' W 008°01'612.9
2017-Oct-15 12:00N 35°44' W 007°53'712.7
2017-Oct-15 11:27N 35°45' W 007°45'612.7
2017-Oct-15 11:00N 35°46' W 007°38'612.9
2017-Oct-15 10:30N 35°47' W 007°30'612.9
2017-Oct-15 10:00N 35°48' W 007°22'613.0
2017-Oct-15 09:30N 35°49' W 007°14'713.2
2017-Oct-15 09:00N 35°50' W 007°06'713.5
2017-Oct-15 08:30N 35°52' W 006°58'714.1
2017-Oct-15 08:00N 35°53' W 006°49'913.9
2017-Oct-15 07:22N 35°54' W 006°39'513.5
2017-Oct-15 07:00N 35°55' W 006°33'713.3
2017-Oct-15 06:30N 35°56' W 006°24'713.2
2017-Oct-15 06:00N 35°57' W 006°16'2913.2
2017-Oct-15 03:50N 35°56' W 005°41'412.3
2017-Oct-15 03:30N 35°58' W 005°36'612.2
2017-Oct-15 03:00N 35°59' W 005°29'611.8
2017-Oct-15 02:30N 36°03' W 005°24'2 4.6
2017-Oct-15 02:00N 36°06' W 005°25'0 0.1
2017-Oct-15 01:23N 36°06' W 005°25'0 0.1
2017-Oct-15 00:41N 36°06' W 005°25'0 0.1
2017-Oct-15 00:26N 36°05' W 005°25'0 0.0
2017-Oct-14 23:56N 36°06' W 005°25'0 0.0
2017-Oct-14 23:26N 36°06' W 005°25'0 0.0
2017-Oct-14 22:56N 36°06' W 005°25'0 0.1
2017-Oct-14 22:08N 36°05' W 005°25'0 0.1
2017-Oct-14 21:59N 36°06' W 005°25'0 0.1
2017-Oct-14 21:28N 36°06' W 005°25'0 0.0
2017-Oct-14 20:35N 36°06' W 005°25'0 0.0
2017-Oct-14 20:26N 36°06' W 005°25'0 0.0
2017-Oct-14 19:59N 36°06' W 005°25'0 0.3
2017-Oct-14 18:49N 36°06' W 005°24'2 5.8
2017-Oct-14 18:30N 36°05' W 005°22'5 9.2
2017-Oct-14 18:00N 36°04' W 005°17'18112.7
2017-Oct-14 03:42N 36°32' W 001°34'513.0
2017-Oct-14 03:21N 36°34' W 001°29'2613.5
2017-Oct-14 01:24N 36°39' W 000°57'513.4
2017-Oct-14 01:00N 36°41' W 000°50'713.3
2017-Oct-14 00:30N 36°42' W 000°42'713.4
2017-Oct-14 00:00N 36°44' W 000°34'713.4
2017-Oct-13 23:30N 36°45' W 000°26'713.4
2017-Oct-13 23:00N 36°46' W 000°18'713.2
2017-Oct-13 22:30N 36°48' W 000°10'1313.3
2017-Oct-13 21:32N 36°51' E 000°06'013.1
2017-Oct-13 21:30N 36°51' E 000°07'713.4
2017-Oct-13 21:00N 36°52' E 000°15'713.5
2017-Oct-13 20:30N 36°54' E 000°23'713.5
2017-Oct-13 20:00N 36°56' E 000°31'713.4
2017-Oct-13 19:30N 36°57' E 000°39'713.6
2017-Oct-13 19:00N 36°59' E 000°48'713.6
2017-Oct-13 18:30N 36°60' E 000°56'713.5
2017-Oct-13 18:00N 37°01' E 001°04'713.6
2017-Oct-13 17:30N 37°03' E 001°13'713.3
2017-Oct-13 17:00N 37°04' E 001°21'713.2
2017-Oct-13 16:30N 37°06' E 001°29'713.3
2017-Oct-13 15:59N 37°07' E 001°37'613.5
2017-Oct-13 15:30N 37°09' E 001°45'713.6
2017-Oct-13 15:00N 37°10' E 001°53'713.4
2017-Oct-13 14:27N 37°12' E 002°02'613.3
2017-Oct-13 13:59N 37°13' E 002°10'613.2
2017-Oct-13 13:30N 37°15' E 002°18'2513.2
2017-Oct-13 11:38N 37°20' E 002°48'413.3
2017-Oct-13 11:20N 37°21' E 002°53'413.2
2017-Oct-13 11:00N 37°22' E 002°58'713.2
2017-Oct-13 10:30N 37°23' E 003°06'713.0
2017-Oct-13 10:00N 37°25' E 003°15'813.1
2017-Oct-13 09:23N 37°27' E 003°24'5513.1
2017-Oct-13 05:09N 37°33' E 004°34'212.9
2017-Oct-13 05:00N 37°33' E 004°36'713.0
2017-Oct-13 04:29N 37°33' E 004°44'3413.2
2017-Oct-13 01:54N 37°34' E 005°27'  
Track history (hours):
 
Tides and Currents Weather Stations Pressure Air Temp Water Temp Dewpoint Dewpoint Depression Visibility Wind Speed Wind Dir Waves Ship Positions

Ansac Wyoming

Last reported at 2017-Oct-15 20:46 UTC. Time now 2017-Oct-22 06:43 UTC.
Position N 35°25' W 010°11'.

Length 179 m; draft 6.2 m.

Type: Cargo ship. MMSI: 566264000.

Date/timePositionNaut miles runAvg speedWind from/ knotsBaromVisibWave heightAir tempDewpointWater temp
2017-Oct-15 20:46N 35°25' W 010°11'312.1
2017-Oct-15 20:30N 35°25' W 010°07'611.8
2017-Oct-15 20:00N 35°26' W 009°60'611.9
2017-Oct-15 19:30N 35°27' W 009°53'612.3
2017-Oct-15 19:00N 35°29' W 009°45'612.6
2017-Oct-15 18:30N 35°30' W 009°37'612.7
2017-Oct-15 18:00N 35°30' W 009°30'612.7
2017-Oct-15 17:30N 35°32' W 009°22'713.1
2017-Oct-15 16:59N 35°33' W 009°14'613.1
2017-Oct-15 16:30N 35°34' W 009°06'713.1
2017-Oct-15 16:00N 35°35' W 008°58'713.2
2017-Oct-15 15:30N 35°36' W 008°50'713.8
2017-Oct-15 15:00N 35°37' W 008°42'1414.4
2017-Oct-15 14:00N 35°39' W 008°24'612.8
2017-Oct-15 13:30N 35°41' W 008°17'612.9
2017-Oct-15 13:00N 35°42' W 008°09'713.3
2017-Oct-15 12:30N 35°43' W 008°01'612.9
2017-Oct-15 12:00N 35°44' W 007°53'712.7
2017-Oct-15 11:27N 35°45' W 007°45'612.7
2017-Oct-15 11:00N 35°46' W 007°38'612.9
2017-Oct-15 10:30N 35°47' W 007°30'612.9
2017-Oct-15 10:00N 35°48' W 007°22'613.0
2017-Oct-15 09:30N 35°49' W 007°14'713.2
2017-Oct-15 09:00N 35°50' W 007°06'713.5
2017-Oct-15 08:30N 35°52' W 006°58'714.1
2017-Oct-15 08:00N 35°53' W 006°49'913.9
2017-Oct-15 07:22N 35°54' W 006°39'513.5
2017-Oct-15 07:00N 35°55' W 006°33'713.3
2017-Oct-15 06:30N 35°56' W 006°24'713.2
2017-Oct-15 06:00N 35°57' W 006°16'2913.2
2017-Oct-15 03:50N 35°56' W 005°41'412.3
2017-Oct-15 03:30N 35°58' W 005°36'612.2
2017-Oct-15 03:00N 35°59' W 005°29'611.8
2017-Oct-15 02:30N 36°03' W 005°24'2 4.6
2017-Oct-15 02:00N 36°06' W 005°25'0 0.1
2017-Oct-15 01:23N 36°06' W 005°25'0 0.1
2017-Oct-15 00:41N 36°06' W 005°25'0 0.1
2017-Oct-15 00:26N 36°05' W 005°25'0 0.0
2017-Oct-14 23:56N 36°06' W 005°25'0 0.0
2017-Oct-14 23:26N 36°06' W 005°25'0 0.0
2017-Oct-14 22:56N 36°06' W 005°25'0 0.1
2017-Oct-14 22:08N 36°05' W 005°25'0 0.1
2017-Oct-14 21:59N 36°06' W 005°25'0 0.1
2017-Oct-14 21:28N 36°06' W 005°25'0 0.0
2017-Oct-14 20:35N 36°06' W 005°25'0 0.0
2017-Oct-14 20:26N 36°06' W 005°25'0 0.0
2017-Oct-14 19:59N 36°06' W 005°25'0 0.3
2017-Oct-14 18:49N 36°06' W 005°24'2 5.8
2017-Oct-14 18:30N 36°05' W 005°22'5 9.2
2017-Oct-14 18:00N 36°04' W 005°17'18112.7
2017-Oct-14 03:42N 36°32' W 001°34'513.0
2017-Oct-14 03:21N 36°34' W 001°29'2613.5
2017-Oct-14 01:24N 36°39' W 000°57'513.4
2017-Oct-14 01:00N 36°41' W 000°50'713.3
2017-Oct-14 00:30N 36°42' W 000°42'713.4
2017-Oct-14 00:00N 36°44' W 000°34'713.4
2017-Oct-13 23:30N 36°45' W 000°26'713.4
2017-Oct-13 23:00N 36°46' W 000°18'713.2
2017-Oct-13 22:30N 36°48' W 000°10'1313.3
2017-Oct-13 21:32N 36°51' E 000°06'013.1
2017-Oct-13 21:30N 36°51' E 000°07'713.4
2017-Oct-13 21:00N 36°52' E 000°15'713.5
2017-Oct-13 20:30N 36°54' E 000°23'713.5
2017-Oct-13 20:00N 36°56' E 000°31'713.4
2017-Oct-13 19:30N 36°57' E 000°39'713.6
2017-Oct-13 19:00N 36°59' E 000°48'713.6
2017-Oct-13 18:30N 36°60' E 000°56'713.5
2017-Oct-13 18:00N 37°01' E 001°04'713.6
2017-Oct-13 17:30N 37°03' E 001°13'713.3
2017-Oct-13 17:00N 37°04' E 001°21'713.2
2017-Oct-13 16:30N 37°06' E 001°29'713.3
2017-Oct-13 15:59N 37°07' E 001°37'613.5
2017-Oct-13 15:30N 37°09' E 001°45'713.6
2017-Oct-13 15:00N 37°10' E 001°53'713.4
2017-Oct-13 14:27N 37°12' E 002°02'613.3
2017-Oct-13 13:59N 37°13' E 002°10'613.2
2017-Oct-13 13:30N 37°15' E 002°18'2513.2
2017-Oct-13 11:38N 37°20' E 002°48'413.3
2017-Oct-13 11:20N 37°21' E 002°53'413.2
2017-Oct-13 11:00N 37°22' E 002°58'713.2
2017-Oct-13 10:30N 37°23' E 003°06'713.0
2017-Oct-13 10:00N 37°25' E 003°15'813.1
2017-Oct-13 09:23N 37°27' E 003°24'5513.1
2017-Oct-13 05:09N 37°33' E 004°34'212.9
2017-Oct-13 05:00N 37°33' E 004°36'713.0
2017-Oct-13 04:29N 37°33' E 004°44'3413.2
2017-Oct-13 01:54N 37°34' E 005°27'  

Dump ship's entire track history